createdAt,value
2019-03-27T00:01:05.880Z,12.00
2019-03-27T00:03:41.563Z,11.80
2019-03-27T00:06:20.011Z,16.40
2019-03-27T00:08:52.799Z,12.80
2019-03-27T00:11:26.568Z,11.00
2019-03-27T00:14:01.831Z,14.40
2019-03-27T00:16:36.356Z,13.20
2019-03-27T00:19:09.397Z,11.60
2019-03-27T00:21:42.274Z,11.60
2019-03-27T00:24:16.789Z,12.60
2019-03-27T00:26:55.393Z,11.20
2019-03-27T00:29:28.244Z,13.00
2019-03-27T00:32:01.291Z,13.60
2019-03-27T00:34:34.101Z,10.40
2019-03-27T00:37:06.775Z,13.20
2019-03-27T00:39:39.583Z,10.80
2019-03-27T00:42:12.406Z,9.60
2019-03-27T00:44:45.115Z,11.20
2019-03-27T00:47:20.677Z,9.20
2019-03-27T00:49:53.496Z,12.40
2019-03-27T00:52:26.114Z,10.40
2019-03-27T00:54:58.641Z,10.00
2019-03-27T00:57:31.326Z,10.00
2019-03-27T01:00:08.702Z,12.40
2019-03-27T01:02:44.643Z,11.40
2019-03-27T01:05:22.336Z,9.20
2019-03-27T01:07:55.347Z,8.60
2019-03-27T01:10:28.917Z,9.00
2019-03-27T01:13:07.722Z,9.80
2019-03-27T01:15:42.572Z,8.20
2019-03-27T01:18:20.724Z,8.00
2019-03-27T01:20:53.450Z,11.00
2019-03-27T01:23:26.062Z,9.20
2019-03-27T01:25:59.132Z,7.40
2019-03-27T01:28:34.231Z,8.80
2019-03-27T01:31:11.779Z,8.80
2019-03-27T01:33:50.171Z,9.60
2019-03-27T01:36:24.018Z,9.00
2019-03-27T01:38:59.223Z,9.20
2019-03-27T01:41:33.007Z,9.00
2019-03-27T01:44:08.341Z,9.00
2019-03-27T01:46:47.704Z,7.20
2019-03-27T01:49:26.397Z,8.60
2019-03-27T01:52:09.959Z,6.60
2019-03-27T01:54:49.197Z,9.40
2019-03-27T01:57:27.004Z,7.20
2019-03-27T02:00:04.614Z,6.80
2019-03-27T02:02:38.563Z,6.60
2019-03-27T02:05:15.059Z,7.60
2019-03-27T02:07:53.933Z,7.00
2019-03-27T02:10:35.014Z,5.40
2019-03-27T02:13:17.849Z,7.20
2019-03-27T02:16:05.627Z,6.60
2019-03-27T02:18:28.887Z,7.20
2019-03-27T02:21:08.236Z,6.00
2019-03-27T02:23:43.574Z,8.40
2019-03-27T02:26:16.837Z,8.00
2019-03-27T02:28:50.986Z,6.00
2019-03-27T02:31:25.268Z,7.00
2019-03-27T02:34:01.269Z,5.20
2019-03-27T02:36:35.868Z,7.00
2019-03-27T02:39:09.574Z,6.60
2019-03-27T02:41:42.737Z,7.00
2019-03-27T02:44:17.421Z,6.80
2019-03-27T02:46:50.883Z,6.00
2019-03-27T02:49:23.761Z,5.80
2019-03-27T02:52:07.866Z,5.80
2019-03-27T02:54:40.996Z,6.20
2019-03-27T02:57:13.836Z,6.60
2019-03-27T02:59:46.725Z,7.40
2019-03-27T03:02:22.922Z,5.60
2019-03-27T03:04:56.268Z,5.80
2019-03-27T03:07:30.925Z,6.00
2019-03-27T03:10:04.462Z,5.00
2019-03-27T03:12:37.374Z,8.20
2019-03-27T03:15:10.973Z,5.40
2019-03-27T03:17:43.926Z,10.40
2019-03-27T03:20:16.571Z,11.20
2019-03-27T03:22:48.860Z,15.80
2019-03-27T03:25:21.287Z,17.20
2019-03-27T03:27:53.674Z,18.20
2019-03-27T03:30:26.186Z,20.00
2019-03-27T03:32:59.249Z,17.40
2019-03-27T03:35:31.576Z,14.60
2019-03-27T03:38:04.159Z,14.80
2019-03-27T03:40:37.179Z,14.00
2019-03-27T03:43:09.903Z,21.20
2019-03-27T03:45:43.494Z,42.00
2019-03-27T03:48:16.153Z,107.00
2019-03-27T03:50:48.535Z,106.00
2019-03-27T03:53:20.994Z,84.25
2019-03-27T03:55:54.149Z,90.00
2019-03-27T03:58:27.503Z,99.75
2019-03-27T04:01:01.545Z,102.00
2019-03-27T04:03:36.222Z,104.50
2019-03-27T04:06:08.659Z,103.50
2019-03-27T04:12:22.779Z,104.00
2019-03-27T04:14:55.910Z,97.50
2019-03-27T04:17:28.732Z,97.25
2019-03-27T04:20:01.744Z,92.00
2019-03-27T04:22:36.220Z,89.50
2019-03-27T04:25:10.773Z,87.00
2019-03-27T04:27:43.512Z,89.25
2019-03-27T04:30:17.263Z,93.25
2019-03-27T04:32:50.103Z,79.50
2019-03-27T04:35:23.033Z,89.00
2019-03-27T04:37:55.976Z,81.75
2019-03-27T04:40:31.639Z,79.00
2019-03-27T04:43:05.193Z,76.75
2019-03-27T04:45:38.288Z,73.25
2019-03-27T04:48:11.134Z,80.75
2019-03-27T04:50:45.755Z,74.00
2019-03-27T04:53:19.422Z,65.00
2019-03-27T04:55:51.811Z,72.00
2019-03-27T04:58:24.081Z,62.00
2019-03-27T05:01:05.587Z,70.50
2019-03-27T05:03:49.138Z,64.00
2019-03-27T05:06:32.255Z,72.75
2019-03-27T05:09:11.426Z,64.75
2019-03-27T05:11:44.258Z,65.00
2019-03-27T05:14:17.213Z,61.25
2019-03-27T05:16:49.797Z,62.50
2019-03-27T05:19:22.701Z,64.50
2019-03-27T05:21:58.459Z,61.25
2019-03-27T05:24:32.166Z,64.75
2019-03-27T05:27:04.913Z,54.50
2019-03-27T05:29:37.372Z,63.00
2019-03-27T05:32:10.846Z,53.75
2019-03-27T05:34:43.515Z,60.75
2019-03-27T05:37:16.012Z,54.25
2019-03-27T05:39:48.803Z,57.25
2019-03-27T05:42:21.418Z,55.75
2019-03-27T05:44:54.122Z,55.25
2019-03-27T05:47:29.035Z,53.75
2019-03-27T05:50:04.934Z,51.75
2019-03-27T05:52:37.559Z,56.00
2019-03-27T05:55:10.820Z,52.00
2019-03-27T05:57:43.877Z,55.75
2019-03-27T06:00:17.961Z,52.25
2019-03-27T06:02:50.223Z,53.50
2019-03-27T06:05:22.736Z,50.50
2019-03-27T06:07:55.172Z,51.75
2019-03-27T06:10:27.549Z,51.50
2019-03-27T06:13:00.190Z,52.50
2019-03-27T06:15:32.569Z,52.00
2019-03-27T06:18:12.986Z,50.00
2019-03-27T06:20:39.065Z,47.20
2019-03-27T06:23:11.264Z,49.60
2019-03-27T06:25:43.906Z,49.00
2019-03-27T06:28:16.118Z,47.00
2019-03-27T06:30:48.322Z,48.60
2019-03-27T06:33:20.894Z,47.00
2019-03-27T06:35:53.368Z,48.80
2019-03-27T06:38:25.654Z,47.00
2019-03-27T06:40:57.897Z,45.60
2019-03-27T06:43:30.353Z,45.60
2019-03-27T06:46:03.277Z,44.20
2019-03-27T06:48:35.674Z,45.60
2019-03-27T06:51:08.019Z,44.80
2019-03-27T06:53:40.305Z,42.60
2019-03-27T06:56:13.145Z,43.40
2019-03-27T06:58:54.446Z,42.60
2019-03-27T07:01:19.328Z,44.20
2019-03-27T07:03:51.835Z,42.80
2019-03-27T07:06:24.035Z,44.40
2019-03-27T07:08:56.275Z,45.00
2019-03-27T07:11:28.834Z,40.40
2019-03-27T07:14:01.100Z,41.80
2019-03-27T07:16:33.643Z,42.40
2019-03-27T07:19:06.143Z,42.40
2019-03-27T07:21:38.367Z,42.60
2019-03-27T07:24:11.042Z,39.20
2019-03-27T07:26:43.375Z,39.00
2019-03-27T07:29:18.942Z,41.40
2019-03-27T07:31:49.554Z,39.60
2019-03-27T07:34:21.862Z,39.60
2019-03-27T07:36:56.235Z,37.40
2019-03-27T07:39:27.888Z,39.20
2019-03-27T07:42:00.079Z,39.80
2019-03-27T07:44:32.326Z,37.40
2019-03-27T07:47:05.037Z,35.40
2019-03-27T07:49:37.633Z,38.40
2019-03-27T07:52:10.256Z,36.00
2019-03-27T07:54:44.560Z,38.60
2019-03-27T07:57:16.963Z,36.80
2019-03-27T07:59:49.183Z,34.80
2019-03-27T08:02:21.484Z,32.40
2019-03-27T08:04:53.786Z,25.40
2019-03-27T08:07:27.186Z,28.80
2019-03-27T08:09:59.714Z,25.40
2019-03-27T08:12:31.893Z,24.00
2019-03-27T08:15:04.083Z,27.00
2019-03-27T08:17:37.923Z,27.60
2019-03-27T08:20:10.776Z,26.80
2019-03-27T08:22:45.321Z,24.80
2019-03-27T08:25:18.657Z,28.20
2019-03-27T08:27:51.199Z,24.00
2019-03-27T08:30:23.590Z,24.00
2019-03-27T08:32:55.979Z,23.40
2019-03-27T08:35:28.177Z,24.80
2019-03-27T08:38:00.750Z,23.20
2019-03-27T08:40:33.353Z,19.00
2019-03-27T08:43:05.643Z,24.60
2019-03-27T08:45:37.869Z,23.00
2019-03-27T08:48:10.437Z,19.80
2019-03-27T08:50:42.710Z,25.80
2019-03-27T08:53:14.877Z,20.60
2019-03-27T08:55:47.308Z,21.60
2019-03-27T08:58:19.579Z,16.20
2019-03-27T09:00:53.850Z,18.20
2019-03-27T09:03:26.190Z,19.20
2019-03-27T09:05:58.600Z,21.80
2019-03-27T09:08:31.180Z,20.20
2019-03-27T09:11:04.767Z,19.00
2019-03-27T09:13:38.467Z,18.00
2019-03-27T09:16:11.040Z,16.20
2019-03-27T09:18:43.750Z,17.00
2019-03-27T09:21:16.497Z,15.00
2019-03-27T09:23:49.475Z,18.40
2019-03-27T09:26:21.727Z,16.40
2019-03-27T09:28:54.021Z,21.00
2019-03-27T09:31:26.323Z,20.00
2019-03-27T09:33:58.782Z,14.00
2019-03-27T09:36:30.967Z,13.80
2019-03-27T09:39:03.134Z,17.20
2019-03-27T09:41:35.420Z,18.20
2019-03-27T09:44:07.785Z,16.80
2019-03-27T09:46:40.090Z,17.20
2019-03-27T09:49:12.733Z,16.40
2019-03-27T09:51:44.952Z,13.20
2019-03-27T09:54:17.358Z,13.80
2019-03-27T09:56:50.640Z,10.60
2019-03-27T09:59:22.804Z,11.40
2019-03-27T10:01:55.170Z,9.00
2019-03-27T10:04:27.669Z,11.20
2019-03-27T10:06:59.978Z,11.00
2019-03-27T10:09:32.345Z,6.40
2019-03-27T10:12:04.615Z,10.20
2019-03-27T10:14:37.121Z,9.80
2019-03-27T10:17:09.589Z,8.40
2019-03-27T10:19:42.340Z,9.40
2019-03-27T10:22:14.739Z,10.00
2019-03-27T10:24:47.603Z,9.40
2019-03-27T10:27:20.116Z,6.40
2019-03-27T10:29:52.489Z,9.60
2019-03-27T10:32:25.369Z,8.60
2019-03-27T10:34:58.175Z,6.40
2019-03-27T10:37:30.533Z,9.60
2019-03-27T10:40:02.909Z,8.20
2019-03-27T10:42:35.385Z,8.20
2019-03-27T10:45:08.341Z,8.40
2019-03-27T10:47:41.213Z,8.00
2019-03-27T10:50:17.947Z,7.20
2019-03-27T10:52:48.407Z,6.60
2019-03-27T10:55:20.796Z,6.40
2019-03-27T10:57:53.149Z,8.00
2019-03-27T11:00:25.735Z,7.20
2019-03-27T11:02:58.412Z,8.00
2019-03-27T11:05:30.967Z,6.20
2019-03-27T11:08:03.313Z,6.40
2019-03-27T11:10:35.909Z,7.60
2019-03-27T11:13:08.228Z,8.00
2019-03-27T11:15:40.743Z,8.40
2019-03-27T11:18:13.305Z,7.00
2019-03-27T11:20:45.864Z,6.40
2019-03-27T11:23:18.509Z,6.40
2019-03-27T11:25:51.206Z,6.20
2019-03-27T11:28:23.572Z,6.00
2019-03-27T11:30:56.046Z,5.80
2019-03-27T11:33:29.565Z,7.80
2019-03-27T11:36:02.178Z,5.20
2019-03-27T11:38:37.355Z,6.60
2019-03-27T11:41:08.433Z,8.60
2019-03-27T11:43:53.924Z,6.00
2019-03-27T11:46:15.343Z,7.80
2019-03-27T11:48:48.047Z,4.80
2019-03-27T11:51:20.798Z,4.80
2019-03-27T11:53:53.156Z,4.00
2019-03-27T11:56:25.544Z,4.60
2019-03-27T11:58:58.334Z,5.00
2019-03-27T12:01:39.637Z,4.00
2019-03-27T12:04:04.724Z,3.20
2019-03-27T12:06:37.776Z,2.80
2019-03-27T12:09:10.492Z,3.00
2019-03-27T12:11:43.243Z,3.20
2019-03-27T12:14:15.803Z,4.00
2019-03-27T12:16:49.974Z,3.00
2019-03-27T12:19:22.074Z,3.00
2019-03-27T12:21:54.950Z,4.00
2019-03-27T12:24:28.776Z,3.00
2019-03-27T12:27:01.377Z,2.60
2019-03-27T12:29:33.720Z,3.80
2019-03-27T12:32:06.299Z,4.00
2019-03-27T12:34:38.674Z,2.00
2019-03-27T12:37:12.220Z,3.20
2019-03-27T12:39:44.934Z,3.00
2019-03-27T12:42:17.490Z,3.00
2019-03-27T12:44:49.851Z,3.00
2019-03-27T12:47:22.237Z,2.60
2019-03-27T12:49:54.709Z,2.00
2019-03-27T12:52:27.494Z,2.00
2019-03-27T12:55:00.364Z,2.40
2019-03-27T12:57:33.303Z,2.00
2019-03-27T13:00:08.384Z,2.20
2019-03-27T13:02:41.174Z,2.40
2019-03-27T13:05:13.853Z,2.00
2019-03-27T13:07:50.304Z,1.00
2019-03-27T13:10:21.829Z,1.80
2019-03-27T13:12:54.316Z,1.00
2019-03-27T13:15:27.324Z,1.60
2019-03-27T13:18:00.089Z,1.20
2019-03-27T13:20:33.580Z,1.00
2019-03-27T13:23:06.397Z,1.40
2019-03-27T13:25:38.751Z,1.00
2019-03-27T13:28:11.226Z,1.20
2019-03-27T13:30:43.585Z,2.00
2019-03-27T13:33:15.981Z,1.20
2019-03-27T13:35:48.737Z,1.00
2019-03-27T13:38:21.715Z,1.00
2019-03-27T13:40:54.173Z,1.20
2019-03-27T13:43:26.550Z,2.00
2019-03-27T13:45:58.998Z,1.20
2019-03-27T13:48:31.400Z,1.00
2019-03-27T13:51:03.862Z,1.00
2019-03-27T13:53:36.429Z,1.00
2019-03-27T13:56:08.803Z,1.00
2019-03-27T13:58:41.179Z,1.00
2019-03-27T14:01:13.732Z,0.80
2019-03-27T14:03:46.201Z,0.20
2019-03-27T14:06:18.675Z,1.00
2019-03-27T14:08:51.289Z,1.40
2019-03-27T14:11:23.764Z,1.00
2019-03-27T14:13:56.185Z,1.00
2019-03-27T14:16:28.522Z,5.20
2019-03-27T14:19:01.106Z,8.40
2019-03-27T14:21:33.843Z,9.60
2019-03-27T14:24:07.629Z,14.20
2019-03-27T14:26:45.264Z,15.40
2019-03-27T14:29:13.859Z,16.60
2019-03-27T14:31:46.233Z,16.60
2019-03-27T14:34:18.441Z,31.40
2019-03-27T14:36:50.648Z,41.80
2019-03-27T14:39:23.168Z,52.00
2019-03-27T14:41:55.374Z,69.25
2019-03-27T14:44:27.817Z,71.75
2019-03-27T14:47:00.108Z,57.50
2019-03-27T14:49:32.352Z,62.50
2019-03-27T14:52:08.541Z,81.75
2019-03-27T14:54:38.947Z,80.25
2019-03-27T14:57:11.249Z,92.00
2019-03-27T14:59:43.634Z,96.00
2019-03-27T15:02:16.223Z,99.25
2019-03-27T15:04:48.587Z,103.75
2019-03-27T15:07:20.774Z,98.00
2019-03-27T15:09:53.217Z,103.75
2019-03-27T15:12:25.837Z,103.50
2019-03-27T15:14:58.147Z,104.25
2019-03-27T15:17:30.459Z,105.25
2019-03-27T15:20:02.769Z,102.75
2019-03-27T15:22:35.590Z,102.00
2019-03-27T15:25:08.680Z,94.50
2019-03-27T15:27:42.375Z,91.00
2019-03-27T15:30:15.756Z,95.25
2019-03-27T15:32:48.153Z,98.50
2019-03-27T15:35:20.431Z,94.50
2019-03-27T15:37:52.672Z,90.00
2019-03-27T15:40:41.834Z,86.25
2019-03-27T15:43:15.239Z,86.50
2019-03-27T15:45:48.417Z,78.25
2019-03-27T15:48:20.685Z,82.50
2019-03-27T15:50:58.458Z,81.75
2019-03-27T15:53:27.433Z,82.75
2019-03-27T15:55:59.992Z,83.00
2019-03-27T15:58:32.302Z,71.25
2019-03-27T16:01:06.634Z,78.00
2019-03-27T16:03:39.242Z,74.50
2019-03-27T16:06:11.432Z,76.00
2019-03-27T16:08:44.041Z,72.50
2019-03-27T16:11:16.659Z,72.75
2019-03-27T16:13:49.274Z,69.75
2019-03-27T16:16:21.467Z,70.50
2019-03-27T16:18:53.650Z,69.50
2019-03-27T16:21:25.869Z,68.00
2019-03-27T16:24:06.238Z,67.75
2019-03-27T16:26:32.713Z,64.75
2019-03-27T16:29:04.883Z,63.50
2019-03-27T16:31:37.356Z,68.00
2019-03-27T16:34:09.524Z,62.75
2019-03-27T16:36:41.687Z,59.75
2019-03-27T16:39:14.223Z,61.25
2019-03-27T16:41:46.408Z,62.50
2019-03-27T16:44:19.055Z,62.25
2019-03-27T16:46:51.600Z,55.75
2019-03-27T16:49:24.126Z,60.75
2019-03-27T16:51:56.701Z,60.25
2019-03-27T16:54:29.342Z,60.00
2019-03-27T16:57:01.876Z,54.00
2019-03-27T16:59:34.135Z,58.75
2019-03-27T17:02:06.723Z,54.00
2019-03-27T17:04:38.883Z,55.00
2019-03-27T17:07:11.057Z,55.00
2019-03-27T17:09:43.217Z,53.75
2019-03-27T17:12:15.422Z,53.50
2019-03-27T17:14:47.603Z,54.25
2019-03-27T17:17:20.208Z,54.25
2019-03-27T17:19:53.710Z,54.00
2019-03-27T17:22:26.250Z,54.25
2019-03-27T17:24:58.438Z,51.25
2019-03-27T17:27:30.819Z,52.75
2019-03-27T17:30:03.017Z,51.25
2019-03-27T17:32:35.488Z,51.25
2019-03-27T17:35:08.273Z,48.50
2019-03-27T17:37:40.467Z,50.50
2019-03-27T17:40:13.053Z,51.25
2019-03-27T17:42:45.566Z,44.75
2019-03-27T17:45:17.933Z,49.25
2019-03-27T17:47:50.240Z,49.00
2019-03-27T17:50:22.621Z,47.75
2019-03-27T17:52:54.930Z,46.00
2019-03-27T17:55:27.204Z,46.25
2019-03-27T17:57:59.622Z,47.75
2019-03-27T18:00:46.833Z,45.50
2019-03-27T18:03:19.432Z,46.75
2019-03-27T18:05:51.918Z,47.75
2019-03-27T18:08:24.168Z,45.00
2019-03-27T18:10:56.684Z,45.00
2019-03-27T18:13:30.129Z,47.75
2019-03-27T18:16:02.325Z,43.75
2019-03-27T18:18:34.603Z,45.00
2019-03-27T18:21:07.209Z,43.50
2019-03-27T18:23:45.779Z,44.75
2019-03-27T18:26:13.848Z,43.75
2019-03-27T18:28:46.207Z,44.75
2019-03-27T18:31:18.403Z,43.00
2019-03-27T18:33:51.017Z,44.50
2019-03-27T18:36:24.771Z,42.75
2019-03-27T18:38:57.276Z,42.50
2019-03-27T18:41:29.435Z,42.75
2019-03-27T18:44:03.350Z,44.00
2019-03-27T18:46:35.760Z,40.60
2019-03-27T18:49:10.428Z,42.25
2019-03-27T18:51:42.092Z,41.00
2019-03-27T18:54:14.325Z,41.20
2019-03-27T18:56:46.533Z,42.20
2019-03-27T18:59:18.955Z,41.20
2019-03-27T19:01:51.262Z,40.80
2019-03-27T19:04:24.465Z,40.00
2019-03-27T19:06:58.741Z,41.25
2019-03-27T19:09:30.617Z,39.80
2019-03-27T19:12:03.363Z,40.00
2019-03-27T19:14:36.330Z,39.40
2019-03-27T19:17:08.997Z,38.00
2019-03-27T19:19:41.638Z,40.40
2019-03-27T19:22:14.168Z,37.40
2019-03-27T19:24:46.515Z,36.80
2019-03-27T19:27:18.816Z,32.80
2019-03-27T19:29:51.243Z,37.40
2019-03-27T19:32:23.473Z,36.80
2019-03-27T19:34:55.998Z,37.20
2019-03-27T19:37:28.194Z,38.60
2019-03-27T19:40:01.278Z,37.80
2019-03-27T19:42:34.601Z,34.00
2019-03-27T19:45:08.248Z,35.60
2019-03-27T19:47:40.749Z,36.40
2019-03-27T19:50:13.295Z,33.20
2019-03-27T19:52:45.822Z,36.60
2019-03-27T19:55:18.572Z,35.00
2019-03-27T19:57:51.172Z,37.80
2019-03-27T20:00:24.391Z,36.00
2019-03-27T20:02:56.709Z,34.60
2019-03-27T20:05:29.169Z,34.40
2019-03-27T20:08:02.051Z,35.00
2019-03-27T20:10:34.835Z,33.40
2019-03-27T20:13:07.151Z,32.00
2019-03-27T20:15:39.568Z,37.20
2019-03-27T20:18:11.909Z,34.20
2019-03-27T20:20:44.201Z,32.60
2019-03-27T20:23:16.724Z,33.40
2019-03-27T20:25:49.534Z,35.40
2019-03-27T20:28:22.351Z,34.40
2019-03-27T20:30:55.214Z,31.40
2019-03-27T20:33:27.521Z,32.40
2019-03-27T20:35:59.815Z,31.20
2019-03-27T20:38:32.182Z,32.00
2019-03-27T20:41:04.483Z,31.00
2019-03-27T20:43:37.936Z,30.00
2019-03-27T20:46:24.017Z,31.60
2019-03-27T20:48:45.403Z,26.20
2019-03-27T20:51:17.711Z,31.40
2019-03-27T20:53:50.080Z,30.20
2019-03-27T20:56:22.577Z,31.80
2019-03-27T20:58:55.171Z,25.80
2019-03-27T21:01:27.740Z,30.00
2019-03-27T21:03:59.965Z,25.20
2019-03-27T21:06:32.738Z,28.00
2019-03-27T21:09:06.208Z,26.60
2019-03-27T21:11:38.729Z,27.40
2019-03-27T21:14:11.319Z,28.40
2019-03-27T21:16:43.530Z,28.20
2019-03-27T21:19:16.237Z,24.40
2019-03-27T21:21:50.347Z,28.40
2019-03-27T21:24:22.780Z,24.20
2019-03-27T21:26:54.964Z,22.40
2019-03-27T21:29:27.472Z,27.40
2019-03-27T21:31:59.839Z,25.80
2019-03-27T21:34:32.188Z,24.00
2019-03-27T21:37:04.363Z,25.00
2019-03-27T21:39:36.735Z,23.60
2019-03-27T21:42:09.222Z,23.80
2019-03-27T21:44:41.431Z,22.60
2019-03-27T21:47:13.951Z,22.00
2019-03-27T21:49:46.539Z,25.80
2019-03-27T21:52:18.889Z,21.80
2019-03-27T21:54:51.291Z,21.00
2019-03-27T21:57:23.684Z,20.20
2019-03-27T21:59:56.519Z,17.80
2019-03-27T22:02:29.816Z,21.20
2019-03-27T22:05:02.409Z,17.80
2019-03-27T22:07:34.621Z,23.80
2019-03-27T22:10:08.578Z,20.40
2019-03-27T22:12:40.797Z,19.20
2019-03-27T22:15:13.177Z,12.60
2019-03-27T22:17:45.713Z,19.40
2019-03-27T22:20:18.405Z,17.20
2019-03-27T22:22:50.604Z,21.00
2019-03-27T22:25:35.320Z,17.60
2019-03-27T22:27:57.230Z,18.40
2019-03-27T22:30:29.583Z,18.60
2019-03-27T22:33:01.951Z,17.00
2019-03-27T22:35:34.134Z,19.00
2019-03-27T22:38:06.410Z,18.20
2019-03-27T22:40:38.629Z,19.00
2019-03-27T22:43:10.797Z,18.80
2019-03-27T22:45:43.091Z,17.40
2019-03-27T22:48:15.499Z,17.20
2019-03-27T22:50:47.718Z,17.40
2019-03-27T22:53:20.247Z,16.40
2019-03-27T22:55:52.625Z,14.80
2019-03-27T22:58:24.800Z,17.40
2019-03-27T23:00:57.695Z,15.00
2019-03-27T23:03:30.585Z,15.00
2019-03-27T23:06:02.992Z,14.25
2019-03-27T23:08:35.159Z,14.25
2019-03-27T23:11:07.606Z,16.00
2019-03-27T23:13:39.891Z,15.60
2019-03-27T23:16:12.414Z,12.00
2019-03-27T23:18:44.799Z,15.00
2019-03-27T23:21:17.388Z,12.80
2019-03-27T23:23:49.616Z,13.50
2019-03-27T23:26:22.675Z,13.40
2019-03-27T23:28:55.107Z,12.40
2019-03-27T23:31:27.460Z,12.80
2019-03-27T23:34:00.542Z,11.20
2019-03-27T23:36:33.226Z,12.00
2019-03-27T23:39:06.941Z,11.20
2019-03-27T23:41:39.168Z,12.80
2019-03-27T23:44:11.342Z,15.40
2019-03-27T23:46:43.647Z,12.60
2019-03-27T23:49:16.180Z,13.00
2019-03-27T23:51:48.599Z,12.20
2019-03-27T23:54:21.971Z,11.60
2019-03-27T23:56:54.796Z,11.00
2019-03-27T23:59:27.088Z,12.60
